sensor_id;sensor_type;location;lat;lon;timestamp;temperature;humidity
871;DHT22;422;51.280;7.236;2023-05-10T00:01:50;12.90;99.90
871;DHT22;422;51.280;7.236;2023-05-10T00:04:17;12.80;99.90
871;DHT22;422;51.280;7.236;2023-05-10T00:06:45;12.70;99.90
871;DHT22;422;51.280;7.236;2023-05-10T00:09:13;12.70;99.90
871;DHT22;422;51.280;7.236;2023-05-10T00:11:43;12.70;99.90
871;DHT22;422;51.280;7.236;2023-05-10T00:14:11;12.70;99.90
871;DHT22;422;51.280;7.236;2023-05-10T00:16:39;12.70;99.90
871;DHT22;422;51.280;7.236;2023-05-10T00:19:06;12.70;99.90
871;DHT22;422;51.280;7.236;2023-05-10T00:21:33;12.80;99.90
871;DHT22;422;51.280;7.236;2023-05-10T00:24:02;12.70;99.90
871;DHT22;422;51.280;7.236;2023-05-10T00:26:30;12.70;99.90
871;DHT22;422;51.280;7.236;2023-05-10T00:28:57;12.70;99.90
871;DHT22;422;51.280;7.236;2023-05-10T00:31:24;12.80;99.90
871;DHT22;422;51.280;7.236;2023-05-10T00:33:51;12.70;99.90
871;DHT22;422;51.280;7.236;2023-05-10T00:36:19;12.80;99.90
871;DHT22;422;51.280;7.236;2023-05-10T00:38:46;12.80;99.90
871;DHT22;422;51.280;7.236;2023-05-10T00:41:15;12.80;99.90
871;DHT22;422;51.280;7.236;2023-05-10T00:43:42;12.80;99.90
871;DHT22;422;51.280;7.236;2023-05-10T00:46:09;12.80;99.90
871;DHT22;422;51.280;7.236;2023-05-10T00:48:37;12.80;99.90
871;DHT22;422;51.280;7.236;2023-05-10T00:51:04;12.80;99.90
871;DHT22;422;51.280;7.236;2023-05-10T00:53:32;12.80;99.90
871;DHT22;422;51.280;7.236;2023-05-10T00:55:59;12.80;99.90
871;DHT22;422;51.280;7.236;2023-05-10T00:58:29;12.80;99.90
871;DHT22;422;51.280;7.236;2023-05-10T01:00:56;12.90;99.90
871;DHT22;422;51.280;7.236;2023-05-10T01:03:25;12.80;99.90
871;DHT22;422;51.280;7.236;2023-05-10T01:05:52;12.90;99.90
871;DHT22;422;51.280;7.236;2023-05-10T01:08:20;12.90;99.90
871;DHT22;422;51.280;7.236;2023-05-10T01:10:47;12.90;99.90
871;DHT22;422;51.280;7.236;2023-05-10T01:13:23;12.80;99.90
871;DHT22;422;51.280;7.236;2023-05-10T01:15:54;12.80;99.90
871;DHT22;422;51.280;7.236;2023-05-10T01:18:22;12.80;99.90
871;DHT22;422;51.280;7.236;2023-05-10T01:21:04;12.80;99.90
871;DHT22;422;51.280;7.236;2023-05-10T01:23:44;12.80;99.90
871;DHT22;422;51.280;7.236;2023-05-10T01:26:31;12.70;99.90
871;DHT22;422;51.280;7.236;2023-05-10T01:29:18;12.80;99.90
871;DHT22;422;51.280;7.236;2023-05-10T01:32:03;12.70;99.90
871;DHT22;422;51.280;7.236;2023-05-10T01:34:38;12.70;99.90
871;DHT22;422;51.280;7.236;2023-05-10T01:37:13;12.70;99.90
871;DHT22;422;51.280;7.236;2023-05-10T01:39:55;12.60;99.90
871;DHT22;422;51.280;7.236;2023-05-10T01:42:28;12.60;99.90
871;DHT22;422;51.280;7.236;2023-05-10T01:45:05;12.60;99.90
871;DHT22;422;51.280;7.236;2023-05-10T01:47:38;12.70;99.90
871;DHT22;422;51.280;7.236;2023-05-10T01:50:10;12.70;99.90
871;DHT22;422;51.280;7.236;2023-05-10T01:52:42;12.70;99.90
871;DHT22;422;51.280;7.236;2023-05-10T01:55:16;12.70;99.90
871;DHT22;422;51.280;7.236;2023-05-10T01:57:48;12.70;99.90
871;DHT22;422;51.280;7.236;2023-05-10T02:00:18;12.70;99.90
871;DHT22;422;51.280;7.236;2023-05-10T02:02:48;12.70;99.90
871;DHT22;422;51.280;7.236;2023-05-10T02:05:17;12.70;99.90
871;DHT22;422;51.280;7.236;2023-05-10T02:07:46;12.70;99.90
871;DHT22;422;51.280;7.236;2023-05-10T02:10:14;12.70;99.90
871;DHT22;422;51.280;7.236;2023-05-10T02:12:46;12.70;99.90
871;DHT22;422;51.280;7.236;2023-05-10T02:15:17;12.70;99.90
871;DHT22;422;51.280;7.236;2023-05-10T02:17:48;12.70;99.90
871;DHT22;422;51.280;7.236;2023-05-10T02:20:16;12.60;99.90
871;DHT22;422;51.280;7.236;2023-05-10T02:22:47;12.70;99.90
871;DHT22;422;51.280;7.236;2023-05-10T02:25:16;12.70;99.90
871;DHT22;422;51.280;7.236;2023-05-10T02:27:45;12.60;99.90
871;DHT22;422;51.280;7.236;2023-05-10T02:30:14;12.60;99.90
871;DHT22;422;51.280;7.236;2023-05-10T02:32:42;12.60;99.90
871;DHT22;422;51.280;7.236;2023-05-10T02:35:11;12.60;99.90
871;DHT22;422;51.280;7.236;2023-05-10T02:37:40;12.50;99.90
871;DHT22;422;51.280;7.236;2023-05-10T02:40:09;12.50;99.90
871;DHT22;422;51.280;7.236;2023-05-10T02:42:38;12.50;99.90
871;DHT22;422;51.280;7.236;2023-05-10T02:45:12;12.60;99.90
871;DHT22;422;51.280;7.236;2023-05-10T02:47:40;12.60;99.90
871;DHT22;422;51.280;7.236;2023-05-10T02:50:08;12.50;99.90
871;DHT22;422;51.280;7.236;2023-05-10T02:52:40;12.50;99.90
871;DHT22;422;51.280;7.236;2023-05-10T02:55:09;12.50;99.90
871;DHT22;422;51.280;7.236;2023-05-10T02:57:41;12.50;99.90
871;DHT22;422;51.280;7.236;2023-05-10T03:00:10;12.50;99.90
871;DHT22;422;51.280;7.236;2023-05-10T03:02:38;12.50;99.90
871;DHT22;422;51.280;7.236;2023-05-10T03:05:05;12.40;99.90
871;DHT22;422;51.280;7.236;2023-05-10T03:07:33;12.40;99.90
871;DHT22;422;51.280;7.236;2023-05-10T03:10:02;12.30;99.90
871;DHT22;422;51.280;7.236;2023-05-10T03:12:39;12.30;99.90
871;DHT22;422;51.280;7.236;2023-05-10T03:15:13;12.30;99.90
871;DHT22;422;51.280;7.236;2023-05-10T03:17:49;12.20;99.90
871;DHT22;422;51.280;7.236;2023-05-10T03:20:24;12.30;99.90
871;DHT22;422;51.280;7.236;2023-05-10T03:22:55;12.30;99.90
871;DHT22;422;51.280;7.236;2023-05-10T03:25:29;12.30;99.90
871;DHT22;422;51.280;7.236;2023-05-10T03:27:58;12.30;99.90
871;DHT22;422;51.280;7.236;2023-05-10T03:30:26;12.30;99.90
871;DHT22;422;51.280;7.236;2023-05-10T03:32:54;12.30;99.90
871;DHT22;422;51.280;7.236;2023-05-10T03:35:23;12.30;99.90
871;DHT22;422;51.280;7.236;2023-05-10T03:37:51;12.30;99.90
871;DHT22;422;51.280;7.236;2023-05-10T03:40:18;12.30;99.90
871;DHT22;422;51.280;7.236;2023-05-10T03:42:46;12.30;99.90
871;DHT22;422;51.280;7.236;2023-05-10T03:45:14;12.30;99.90
871;DHT22;422;51.280;7.236;2023-05-10T03:47:41;12.30;99.90
871;DHT22;422;51.280;7.236;2023-05-10T03:50:08;12.30;99.90
871;DHT22;422;51.280;7.236;2023-05-10T03:52:36;12.30;99.90
871;DHT22;422;51.280;7.236;2023-05-10T03:55:05;12.40;99.90
871;DHT22;422;51.280;7.236;2023-05-10T03:57:33;12.30;99.90
871;DHT22;422;51.280;7.236;2023-05-10T04:00:03;12.30;99.90
871;DHT22;422;51.280;7.236;2023-05-10T04:02:31;12.30;99.90
871;DHT22;422;51.280;7.236;2023-05-10T04:04:58;12.30;99.90
871;DHT22;422;51.280;7.236;2023-05-10T04:07:25;12.20;99.90
871;DHT22;422;51.280;7.236;2023-05-10T04:09:52;12.20;99.90
871;DHT22;422;51.280;7.236;2023-05-10T04:12:19;12.20;99.90
871;DHT22;422;51.280;7.236;2023-05-10T04:14:46;12.20;99.90
871;DHT22;422;51.280;7.236;2023-05-10T04:17:15;12.30;99.90
871;DHT22;422;51.280;7.236;2023-05-10T04:19:42;12.30;99.90
871;DHT22;422;51.280;7.236;2023-05-10T04:22:09;12.30;99.90
871;DHT22;422;51.280;7.236;2023-05-10T04:24:37;12.40;99.90
871;DHT22;422;51.280;7.236;2023-05-10T04:27:04;12.40;99.90
871;DHT22;422;51.280;7.236;2023-05-10T04:29:31;12.40;99.90
871;DHT22;422;51.280;7.236;2023-05-10T04:31:58;12.40;99.90
871;DHT22;422;51.280;7.236;2023-05-10T04:34:27;12.40;99.90
871;DHT22;422;51.280;7.236;2023-05-10T04:36:54;12.40;99.90
871;DHT22;422;51.280;7.236;2023-05-10T04:39:21;12.40;99.90
871;DHT22;422;51.280;7.236;2023-05-10T04:41:48;12.50;99.90
871;DHT22;422;51.280;7.236;2023-05-10T04:44:16;12.50;99.90
871;DHT22;422;51.280;7.236;2023-05-10T04:46:43;12.50;99.90
871;DHT22;422;51.280;7.236;2023-05-10T04:49:10;12.50;99.90
871;DHT22;422;51.280;7.236;2023-05-10T04:51:38;12.60;99.90
871;DHT22;422;51.280;7.236;2023-05-10T04:54:06;12.50;99.90
871;DHT22;422;51.280;7.236;2023-05-10T04:56:33;12.50;99.90
871;DHT22;422;51.280;7.236;2023-05-10T04:59:00;12.50;99.90
871;DHT22;422;51.280;7.236;2023-05-10T05:01:27;12.60;99.90
871;DHT22;422;51.280;7.236;2023-05-10T05:03:54;12.60;99.90
871;DHT22;422;51.280;7.236;2023-05-10T05:06:22;12.60;99.90
871;DHT22;422;51.280;7.236;2023-05-10T05:08:52;12.60;99.90
871;DHT22;422;51.280;7.236;2023-05-10T05:11:19;12.60;99.90
871;DHT22;422;51.280;7.236;2023-05-10T05:13:46;12.60;99.90
871;DHT22;422;51.280;7.236;2023-05-10T05:16:14;12.60;99.90
871;DHT22;422;51.280;7.236;2023-05-10T05:18:41;12.50;99.90
871;DHT22;422;51.280;7.236;2023-05-10T05:21:17;12.50;99.90
871;DHT22;422;51.280;7.236;2023-05-10T05:23:45;12.60;99.90
871;DHT22;422;51.280;7.236;2023-05-10T05:26:14;12.60;99.90
871;DHT22;422;51.280;7.236;2023-05-10T05:28:42;12.70;99.90
871;DHT22;422;51.280;7.236;2023-05-10T05:31:09;12.70;99.90
871;DHT22;422;51.280;7.236;2023-05-10T05:33:36;12.70;99.90
871;DHT22;422;51.280;7.236;2023-05-10T05:36:05;12.70;99.90
871;DHT22;422;51.280;7.236;2023-05-10T05:38:32;12.80;99.90
871;DHT22;422;51.280;7.236;2023-05-10T05:41:02;12.80;99.90
871;DHT22;422;51.280;7.236;2023-05-10T05:43:31;12.80;99.90
871;DHT22;422;51.280;7.236;2023-05-10T05:45:58;12.70;99.90
871;DHT22;422;51.280;7.236;2023-05-10T05:48:26;12.60;99.90
871;DHT22;422;51.280;7.236;2023-05-10T05:50:54;12.70;99.90
871;DHT22;422;51.280;7.236;2023-05-10T05:53:22;12.70;99.90
871;DHT22;422;51.280;7.236;2023-05-10T05:55:53;12.80;99.90
871;DHT22;422;51.280;7.236;2023-05-10T05:58:21;12.80;99.90
871;DHT22;422;51.280;7.236;2023-05-10T06:00:49;12.80;99.90
871;DHT22;422;51.280;7.236;2023-05-10T06:03:17;12.90;99.90
871;DHT22;422;51.280;7.236;2023-05-10T06:05:45;13.00;99.90
871;DHT22;422;51.280;7.236;2023-05-10T06:08:12;13.00;99.90
871;DHT22;422;51.280;7.236;2023-05-10T06:10:39;13.10;99.90
871;DHT22;422;51.280;7.236;2023-05-10T06:13:06;13.10;99.90
871;DHT22;422;51.280;7.236;2023-05-10T06:15:33;13.10;99.90
871;DHT22;422;51.280;7.236;2023-05-10T06:18:03;13.20;99.90
871;DHT22;422;51.280;7.236;2023-05-10T06:20:30;13.20;99.90
871;DHT22;422;51.280;7.236;2023-05-10T06:22:58;13.30;99.90
871;DHT22;422;51.280;7.236;2023-05-10T06:25:25;13.40;99.90
871;DHT22;422;51.280;7.236;2023-05-10T06:27:52;13.40;99.90
871;DHT22;422;51.280;7.236;2023-05-10T06:30:24;13.50;99.90
871;DHT22;422;51.280;7.236;2023-05-10T06:32:54;13.60;99.90
871;DHT22;422;51.280;7.236;2023-05-10T06:35:22;13.70;99.90
871;DHT22;422;51.280;7.236;2023-05-10T06:37:50;13.70;99.90
871;DHT22;422;51.280;7.236;2023-05-10T06:40:18;13.80;99.90
871;DHT22;422;51.280;7.236;2023-05-10T06:42:45;13.70;99.90
871;DHT22;422;51.280;7.236;2023-05-10T06:45:13;13.70;99.90
871;DHT22;422;51.280;7.236;2023-05-10T06:47:41;13.80;99.90
871;DHT22;422;51.280;7.236;2023-05-10T06:50:08;13.70;99.90
871;DHT22;422;51.280;7.236;2023-05-10T06:52:38;13.90;99.90
871;DHT22;422;51.280;7.236;2023-05-10T06:55:06;13.80;99.90
871;DHT22;422;51.280;7.236;2023-05-10T06:57:34;13.80;99.90
871;DHT22;422;51.280;7.236;2023-05-10T07:00:02;13.60;99.90
871;DHT22;422;51.280;7.236;2023-05-10T07:02:30;13.60;99.90
871;DHT22;422;51.280;7.236;2023-05-10T07:04:58;13.60;99.90
871;DHT22;422;51.280;7.236;2023-05-10T07:07:25;13.60;99.90
871;DHT22;422;51.280;7.236;2023-05-10T07:09:54;13.60;99.90
871;DHT22;422;51.280;7.236;2023-05-10T07:12:22;13.60;99.90
871;DHT22;422;51.280;7.236;2023-05-10T07:14:49;13.60;99.90
871;DHT22;422;51.280;7.236;2023-05-10T07:17:16;13.60;99.90
871;DHT22;422;51.280;7.236;2023-05-10T07:19:44;13.60;99.90
871;DHT22;422;51.280;7.236;2023-05-10T07:22:11;13.60;99.90
871;DHT22;422;51.280;7.236;2023-05-10T07:24:38;13.50;99.90
871;DHT22;422;51.280;7.236;2023-05-10T07:27:07;13.40;99.90
871;DHT22;422;51.280;7.236;2023-05-10T07:29:35;13.40;99.90
871;DHT22;422;51.280;7.236;2023-05-10T07:32:03;13.30;99.90
871;DHT22;422;51.280;7.236;2023-05-10T07:34:30;13.30;99.90
871;DHT22;422;51.280;7.236;2023-05-10T07:36:58;13.20;99.90
871;DHT22;422;51.280;7.236;2023-05-10T07:39:26;13.10;99.90
871;DHT22;422;51.280;7.236;2023-05-10T07:41:53;13.10;99.90
871;DHT22;422;51.280;7.236;2023-05-10T07:44:22;13.20;99.90
871;DHT22;422;51.280;7.236;2023-05-10T07:46:49;13.30;99.90
871;DHT22;422;51.280;7.236;2023-05-10T07:49:16;13.40;99.90
871;DHT22;422;51.280;7.236;2023-05-10T07:51:44;13.40;99.90
871;DHT22;422;51.280;7.236;2023-05-10T07:54:11;13.50;99.90
871;DHT22;422;51.280;7.236;2023-05-10T07:56:38;13.40;99.90
871;DHT22;422;51.280;7.236;2023-05-10T07:59:10;13.40;99.90
871;DHT22;422;51.280;7.236;2023-05-10T08:01:42;13.50;99.90
871;DHT22;422;51.280;7.236;2023-05-10T08:04:10;13.40;99.90
871;DHT22;422;51.280;7.236;2023-05-10T08:06:37;13.30;99.90
871;DHT22;422;51.280;7.236;2023-05-10T08:09:04;13.40;99.90
871;DHT22;422;51.280;7.236;2023-05-10T08:11:31;13.50;99.90
871;DHT22;422;51.280;7.236;2023-05-10T08:13:59;13.70;99.90
871;DHT22;422;51.280;7.236;2023-05-10T08:16:26;14.20;99.90
871;DHT22;422;51.280;7.236;2023-05-10T08:18:55;14.40;99.90
871;DHT22;422;51.280;7.236;2023-05-10T08:21:23;14.30;99.90
871;DHT22;422;51.280;7.236;2023-05-10T08:23:50;14.40;99.90
871;DHT22;422;51.280;7.236;2023-05-10T08:26:17;14.40;99.90
871;DHT22;422;51.280;7.236;2023-05-10T08:28:44;14.30;99.90
871;DHT22;422;51.280;7.236;2023-05-10T08:31:12;14.40;99.90
871;DHT22;422;51.280;7.236;2023-05-10T08:33:39;14.60;99.90
871;DHT22;422;51.280;7.236;2023-05-10T08:36:08;14.70;99.90
871;DHT22;422;51.280;7.236;2023-05-10T08:38:35;15.00;99.90
871;DHT22;422;51.280;7.236;2023-05-10T08:41:02;15.10;99.90
871;DHT22;422;51.280;7.236;2023-05-10T08:43:30;15.30;99.90
871;DHT22;422;51.280;7.236;2023-05-10T08:46:00;16.00;99.90
871;DHT22;422;51.280;7.236;2023-05-10T08:48:29;16.80;99.90
871;DHT22;422;51.280;7.236;2023-05-10T08:50:58;17.70;99.90
871;DHT22;422;51.280;7.236;2023-05-10T08:53:29;17.90;92.60
871;DHT22;422;51.280;7.236;2023-05-10T08:55:58;17.70;16.40
871;DHT22;422;51.280;7.236;2023-05-10T08:58:25;17.20;1.00
871;DHT22;422;51.280;7.236;2023-05-10T09:00:53;16.60;14.40
871;DHT22;422;51.280;7.236;2023-05-10T09:03:20;16.10;99.90
871;DHT22;422;51.280;7.236;2023-05-10T09:05:48;15.90;99.90
871;DHT22;422;51.280;7.236;2023-05-10T09:08:17;15.90;1.00
871;DHT22;422;51.280;7.236;2023-05-10T09:10:48;16.00;99.90
871;DHT22;422;51.280;7.236;2023-05-10T09:13:16;16.40;99.90
871;DHT22;422;51.280;7.236;2023-05-10T09:15:44;16.60;99.90
871;DHT22;422;51.280;7.236;2023-05-10T09:18:12;16.60;19.60
871;DHT22;422;51.280;7.236;2023-05-10T09:20:39;16.90;24.50
871;DHT22;422;51.280;7.236;2023-05-10T09:23:07;17.20;1.00
871;DHT22;422;51.280;7.236;2023-05-10T09:25:35;16.80;1.00
871;DHT22;422;51.280;7.236;2023-05-10T09:28:08;16.30;8.70
871;DHT22;422;51.280;7.236;2023-05-10T09:30:35;15.50;99.90
871;DHT22;422;51.280;7.236;2023-05-10T09:33:03;15.10;99.90
871;DHT22;422;51.280;7.236;2023-05-10T09:35:31;15.20;99.90
871;DHT22;422;51.280;7.236;2023-05-10T09:38:02;15.10;99.90
871;DHT22;422;51.280;7.236;2023-05-10T09:40:30;15.00;1.00
871;DHT22;422;51.280;7.236;2023-05-10T09:42:59;15.20;1.00
871;DHT22;422;51.280;7.236;2023-05-10T09:45:29;15.40;99.90
871;DHT22;422;51.280;7.236;2023-05-10T09:47:57;15.60;99.90
871;DHT22;422;51.280;7.236;2023-05-10T09:50:25;15.40;1.00
871;DHT22;422;51.280;7.236;2023-05-10T09:52:54;15.40;1.00
871;DHT22;422;51.280;7.236;2023-05-10T09:55:24;15.60;1.00
871;DHT22;422;51.280;7.236;2023-05-10T09:57:59;15.80;1.00
871;DHT22;422;51.280;7.236;2023-05-10T10:00:33;15.80;99.90
871;DHT22;422;51.280;7.236;2023-05-10T10:03:01;16.20;99.90
871;DHT22;422;51.280;7.236;2023-05-10T10:05:30;16.20;25.00
871;DHT22;422;51.280;7.236;2023-05-10T10:07:57;16.20;1.00
871;DHT22;422;51.280;7.236;2023-05-10T10:10:25;16.10;52.20
871;DHT22;422;51.280;7.236;2023-05-10T10:12:52;16.20;5.70
871;DHT22;422;51.280;7.236;2023-05-10T10:15:20;16.10;34.80
871;DHT22;422;51.280;7.236;2023-05-10T10:17:50;15.80;1.00
871;DHT22;422;51.280;7.236;2023-05-10T10:20:19;15.50;1.00
871;DHT22;422;51.280;7.236;2023-05-10T10:22:47;15.10;1.00
871;DHT22;422;51.280;7.236;2023-05-10T10:25:15;14.80;99.90
871;DHT22;422;51.280;7.236;2023-05-10T10:27:48;14.80;95.10
871;DHT22;422;51.280;7.236;2023-05-10T10:30:25;14.70;99.90
871;DHT22;422;51.280;7.236;2023-05-10T10:33:08;14.60;99.90
871;DHT22;422;51.280;7.236;2023-05-10T10:35:38;14.40;99.90
871;DHT22;422;51.280;7.236;2023-05-10T10:38:08;14.40;99.90
871;DHT22;422;51.280;7.236;2023-05-10T10:40:35;14.70;99.90
871;DHT22;422;51.280;7.236;2023-05-10T10:43:24;14.70;99.90
871;DHT22;422;51.280;7.236;2023-05-10T10:46:13;15.00;99.90
871;DHT22;422;51.280;7.236;2023-05-10T10:48:47;15.10;71.40
871;DHT22;422;51.280;7.236;2023-05-10T10:51:15;15.10;1.00
871;DHT22;422;51.280;7.236;2023-05-10T10:53:43;15.20;1.00
871;DHT22;422;51.280;7.236;2023-05-10T10:56:11;15.20;1.00
871;DHT22;422;51.280;7.236;2023-05-10T10:58:41;15.20;1.00
871;DHT22;422;51.280;7.236;2023-05-10T11:01:16;15.40;1.00
871;DHT22;422;51.280;7.236;2023-05-10T11:04:16;15.50;1.00
871;DHT22;422;51.280;7.236;2023-05-10T11:06:44;15.90;1.00
871;DHT22;422;51.280;7.236;2023-05-10T11:09:12;16.30;1.00
871;DHT22;422;51.280;7.236;2023-05-10T11:11:50;16.70;1.00
871;DHT22;422;51.280;7.236;2023-05-10T11:14:20;16.70;1.00
871;DHT22;422;51.280;7.236;2023-05-10T11:16:48;16.60;1.00
871;DHT22;422;51.280;7.236;2023-05-10T11:19:17;16.50;1.00
871;DHT22;422;51.280;7.236;2023-05-10T11:21:46;16.30;1.00
871;DHT22;422;51.280;7.236;2023-05-10T11:24:15;16.20;1.00
871;DHT22;422;51.280;7.236;2023-05-10T11:26:43;15.90;1.00
871;DHT22;422;51.280;7.236;2023-05-10T11:29:10;15.90;1.00
871;DHT22;422;51.280;7.236;2023-05-10T11:31:42;15.90;1.00
871;DHT22;422;51.280;7.236;2023-05-10T11:34:10;15.80;1.00
871;DHT22;422;51.280;7.236;2023-05-10T11:36:41;15.90;1.00
871;DHT22;422;51.280;7.236;2023-05-10T11:39:08;16.10;1.00
871;DHT22;422;51.280;7.236;2023-05-10T11:41:37;16.50;1.00
871;DHT22;422;51.280;7.236;2023-05-10T11:44:04;16.80;1.00
871;DHT22;422;51.280;7.236;2023-05-10T11:46:31;17.10;1.00
871;DHT22;422;51.280;7.236;2023-05-10T11:49:00;17.60;1.00
871;DHT22;422;51.280;7.236;2023-05-10T11:51:32;17.60;1.00
871;DHT22;422;51.280;7.236;2023-05-10T11:54:01;18.10;1.00
871;DHT22;422;51.280;7.236;2023-05-10T11:56:32;18.40;99.90
871;DHT22;422;51.280;7.236;2023-05-10T11:59:00;18.60;99.90
871;DHT22;422;51.280;7.236;2023-05-10T12:01:28;18.70;99.90
871;DHT22;422;51.280;7.236;2023-05-10T12:03:56;18.90;99.90
871;DHT22;422;51.280;7.236;2023-05-10T12:06:28;19.20;99.90
871;DHT22;422;51.280;7.236;2023-05-10T12:08:57;19.30;99.90
871;DHT22;422;51.280;7.236;2023-05-10T12:11:27;19.60;99.90
871;DHT22;422;51.280;7.236;2023-05-10T12:13:56;19.70;99.90
871;DHT22;422;51.280;7.236;2023-05-10T12:16:25;20.10;99.90
871;DHT22;422;51.280;7.236;2023-05-10T12:18:54;20.40;99.90
871;DHT22;422;51.280;7.236;2023-05-10T12:21:22;19.50;99.90
871;DHT22;422;51.280;7.236;2023-05-10T12:23:51;19.00;99.90
871;DHT22;422;51.280;7.236;2023-05-10T12:26:20;18.30;99.90
871;DHT22;422;51.280;7.236;2023-05-10T12:28:49;18.10;99.90
871;DHT22;422;51.280;7.236;2023-05-10T12:31:17;17.70;99.90
871;DHT22;422;51.280;7.236;2023-05-10T12:33:45;17.20;99.90
871;DHT22;422;51.280;7.236;2023-05-10T12:36:14;16.90;99.90
871;DHT22;422;51.280;7.236;2023-05-10T12:38:42;16.40;99.90
871;DHT22;422;51.280;7.236;2023-05-10T12:41:11;16.10;1.00
871;DHT22;422;51.280;7.236;2023-05-10T12:43:39;16.00;1.00
871;DHT22;422;51.280;7.236;2023-05-10T12:46:10;15.80;1.00
871;DHT22;422;51.280;7.236;2023-05-10T12:48:38;15.60;1.00
871;DHT22;422;51.280;7.236;2023-05-10T12:51:06;15.80;1.00
871;DHT22;422;51.280;7.236;2023-05-10T12:53:35;15.80;1.00
871;DHT22;422;51.280;7.236;2023-05-10T12:56:03;16.10;1.00
871;DHT22;422;51.280;7.236;2023-05-10T12:58:30;16.20;1.00
871;DHT22;422;51.280;7.236;2023-05-10T13:00:58;16.30;1.00
871;DHT22;422;51.280;7.236;2023-05-10T13:03:27;16.60;1.00
871;DHT22;422;51.280;7.236;2023-05-10T13:05:54;16.40;1.00
871;DHT22;422;51.280;7.236;2023-05-10T13:08:21;16.50;1.00
871;DHT22;422;51.280;7.236;2023-05-10T13:10:49;16.70;1.00
871;DHT22;422;51.280;7.236;2023-05-10T13:13:16;16.80;99.90
871;DHT22;422;51.280;7.236;2023-05-10T13:15:43;17.10;99.90
871;DHT22;422;51.280;7.236;2023-05-10T13:18:11;17.40;99.90
871;DHT22;422;51.280;7.236;2023-05-10T13:20:40;17.60;99.90
871;DHT22;422;51.280;7.236;2023-05-10T13:23:08;17.70;99.90
871;DHT22;422;51.280;7.236;2023-05-10T13:25:36;17.70;99.90
871;DHT22;422;51.280;7.236;2023-05-10T13:28:03;17.90;99.90
871;DHT22;422;51.280;7.236;2023-05-10T13:30:30;17.90;99.90
871;DHT22;422;51.280;7.236;2023-05-10T13:32:58;18.10;99.90
871;DHT22;422;51.280;7.236;2023-05-10T13:35:25;18.00;99.90
871;DHT22;422;51.280;7.236;2023-05-10T13:37:56;18.10;99.90
871;DHT22;422;51.280;7.236;2023-05-10T13:40:23;18.20;99.90
871;DHT22;422;51.280;7.236;2023-05-10T13:42:51;18.10;99.90
871;DHT22;422;51.280;7.236;2023-05-10T13:45:18;17.90;99.90
871;DHT22;422;51.280;7.236;2023-05-10T13:47:46;17.80;99.90
871;DHT22;422;51.280;7.236;2023-05-10T13:50:13;17.70;99.90
871;DHT22;422;51.280;7.236;2023-05-10T13:52:40;17.40;99.90
871;DHT22;422;51.280;7.236;2023-05-10T13:55:12;17.00;99.90
871;DHT22;422;51.280;7.236;2023-05-10T13:57:40;17.10;99.90
871;DHT22;422;51.280;7.236;2023-05-10T14:00:09;17.00;99.90
871;DHT22;422;51.280;7.236;2023-05-10T14:06:35;17.00;99.90
871;DHT22;422;51.280;7.236;2023-05-10T14:09:03;16.80;99.90
871;DHT22;422;51.280;7.236;2023-05-10T14:11:32;16.80;99.90
871;DHT22;422;51.280;7.236;2023-05-10T14:13:59;16.70;99.90
871;DHT22;422;51.280;7.236;2023-05-10T14:16:26;16.80;1.00
871;DHT22;422;51.280;7.236;2023-05-10T14:18:54;16.70;1.00
871;DHT22;422;51.280;7.236;2023-05-10T14:21:21;16.50;1.00
871;DHT22;422;51.280;7.236;2023-05-10T14:23:48;16.50;1.00
871;DHT22;422;51.280;7.236;2023-05-10T14:26:16;16.70;1.00
871;DHT22;422;51.280;7.236;2023-05-10T14:28:44;16.90;1.00
871;DHT22;422;51.280;7.236;2023-05-10T14:31:12;17.40;1.00
871;DHT22;422;51.280;7.236;2023-05-10T14:33:39;17.40;1.00
871;DHT22;422;51.280;7.236;2023-05-10T14:36:07;17.50;1.00
871;DHT22;422;51.280;7.236;2023-05-10T14:38:34;18.10;1.00
871;DHT22;422;51.280;7.236;2023-05-10T14:41:02;19.00;1.00
871;DHT22;422;51.280;7.236;2023-05-10T14:43:29;19.40;99.90
871;DHT22;422;51.280;7.236;2023-05-10T14:45:58;19.30;99.90
871;DHT22;422;51.280;7.236;2023-05-10T14:48:25;19.10;99.90
871;DHT22;422;51.280;7.236;2023-05-10T14:50:52;19.10;99.90
871;DHT22;422;51.280;7.236;2023-05-10T14:53:19;19.10;99.90
871;DHT22;422;51.280;7.236;2023-05-10T14:55:47;18.80;99.90
871;DHT22;422;51.280;7.236;2023-05-10T14:58:14;18.50;99.90
871;DHT22;422;51.280;7.236;2023-05-10T15:00:42;18.10;99.90
871;DHT22;422;51.280;7.236;2023-05-10T15:03:10;18.00;99.90
871;DHT22;422;51.280;7.236;2023-05-10T15:05:38;18.30;99.90
871;DHT22;422;51.280;7.236;2023-05-10T15:08:05;18.60;99.90
871;DHT22;422;51.280;7.236;2023-05-10T15:10:33;18.80;99.90
871;DHT22;422;51.280;7.236;2023-05-10T15:13:00;18.80;99.90
871;DHT22;422;51.280;7.236;2023-05-10T15:15:28;18.80;99.90
871;DHT22;422;51.280;7.236;2023-05-10T15:17:55;18.80;99.90
871;DHT22;422;51.280;7.236;2023-05-10T15:20:24;18.80;99.90
871;DHT22;422;51.280;7.236;2023-05-10T15:22:51;18.70;99.90
871;DHT22;422;51.280;7.236;2023-05-10T15:25:18;18.60;99.90
871;DHT22;422;51.280;7.236;2023-05-10T15:27:45;18.50;99.90
871;DHT22;422;51.280;7.236;2023-05-10T15:30:13;18.30;99.90
871;DHT22;422;51.280;7.236;2023-05-10T15:32:40;18.20;99.90
871;DHT22;422;51.280;7.236;2023-05-10T15:35:08;18.30;99.90
871;DHT22;422;51.280;7.236;2023-05-10T15:37:37;18.60;99.90
871;DHT22;422;51.280;7.236;2023-05-10T15:40:06;19.30;99.90
871;DHT22;422;51.280;7.236;2023-05-10T15:42:34;19.60;99.90
871;DHT22;422;51.280;7.236;2023-05-10T15:45:01;20.20;99.90
871;DHT22;422;51.280;7.236;2023-05-10T15:47:29;20.30;99.90
871;DHT22;422;51.280;7.236;2023-05-10T15:49:57;20.30;99.90
871;DHT22;422;51.280;7.236;2023-05-10T15:52:24;19.70;99.90
871;DHT22;422;51.280;7.236;2023-05-10T15:54:53;19.20;99.90
871;DHT22;422;51.280;7.236;2023-05-10T15:57:20;18.70;99.90
871;DHT22;422;51.280;7.236;2023-05-10T15:59:47;18.50;99.90
871;DHT22;422;51.280;7.236;2023-05-10T16:02:15;18.20;99.90
871;DHT22;422;51.280;7.236;2023-05-10T16:04:44;18.30;99.90
871;DHT22;422;51.280;7.236;2023-05-10T16:07:11;17.80;99.90
871;DHT22;422;51.280;7.236;2023-05-10T16:09:38;17.70;99.90
871;DHT22;422;51.280;7.236;2023-05-10T16:12:07;17.80;99.90
871;DHT22;422;51.280;7.236;2023-05-10T16:14:34;17.80;99.90
871;DHT22;422;51.280;7.236;2023-05-10T16:17:02;17.70;99.90
871;DHT22;422;51.280;7.236;2023-05-10T16:19:29;17.60;99.90
871;DHT22;422;51.280;7.236;2023-05-10T16:21:56;17.50;99.90
871;DHT22;422;51.280;7.236;2023-05-10T16:24:24;17.30;99.90
871;DHT22;422;51.280;7.236;2023-05-10T16:26:52;17.40;99.90
871;DHT22;422;51.280;7.236;2023-05-10T16:29:22;17.20;99.90
871;DHT22;422;51.280;7.236;2023-05-10T16:31:50;17.10;99.90
871;DHT22;422;51.280;7.236;2023-05-10T16:34:17;17.50;99.90
871;DHT22;422;51.280;7.236;2023-05-10T16:36:48;17.70;99.90
871;DHT22;422;51.280;7.236;2023-05-10T16:39:16;17.70;99.90
871;DHT22;422;51.280;7.236;2023-05-10T16:41:43;17.70;99.90
871;DHT22;422;51.280;7.236;2023-05-10T16:44:10;17.70;99.90
871;DHT22;422;51.280;7.236;2023-05-10T16:46:39;17.70;99.90
871;DHT22;422;51.280;7.236;2023-05-10T16:49:06;17.70;99.90
871;DHT22;422;51.280;7.236;2023-05-10T16:51:34;17.70;99.90